createdAt,value
2023-04-20T00:01:24.857Z,4.13
2023-04-20T00:03:52.080Z,4.18
2023-04-20T00:06:21.785Z,4.82
2023-04-20T00:08:48.809Z,4.22
2023-04-20T00:11:15.643Z,3.95
2023-04-20T00:13:42.698Z,4.22
2023-04-20T00:16:09.539Z,4.60
2023-04-20T00:18:36.324Z,4.28
2023-04-20T00:21:03.276Z,4.15
2023-04-20T00:23:30.204Z,4.35
2023-04-20T00:25:57.042Z,4.47
2023-04-20T00:28:23.897Z,4.75
2023-04-20T00:30:50.826Z,4.25
2023-04-20T00:33:17.592Z,3.95
2023-04-20T00:35:44.399Z,4.00
2023-04-20T00:38:11.221Z,4.93
2023-04-20T00:40:38.115Z,4.18
2023-04-20T00:43:14.781Z,4.05
2023-04-20T00:45:41.604Z,4.50
2023-04-20T00:48:08.574Z,4.50
2023-04-20T00:50:35.962Z,4.20
2023-04-20T00:53:03.354Z,3.75
2023-04-20T00:55:30.486Z,4.15
2023-04-20T00:57:58.330Z,4.30
2023-04-20T01:00:25.907Z,4.70
2023-04-20T01:02:52.905Z,4.65
2023-04-20T01:05:20.526Z,4.68
2023-04-20T01:07:47.357Z,4.30
2023-04-20T01:10:14.217Z,4.53
2023-04-20T01:12:41.390Z,4.43
2023-04-20T01:15:09.290Z,4.50
2023-04-20T01:17:39.779Z,4.70
2023-04-20T01:20:12.611Z,4.65
2023-04-20T01:22:47.567Z,5.03
2023-04-20T01:25:15.408Z,4.65
2023-04-20T01:27:42.595Z,4.28
2023-04-20T01:30:10.696Z,4.72
2023-04-20T01:32:37.747Z,5.20
2023-04-20T01:35:05.379Z,4.57
2023-04-20T01:37:32.797Z,5.03
2023-04-20T01:39:59.736Z,4.68
2023-04-20T01:42:26.589Z,5.30
2023-04-20T01:44:53.472Z,5.45
2023-04-20T01:47:20.314Z,4.97
2023-04-20T01:49:47.170Z,4.90
2023-04-20T01:52:14.073Z,4.80
2023-04-20T01:54:41.237Z,5.68
2023-04-20T01:57:08.069Z,4.38
2023-04-20T01:59:34.967Z,5.07
2023-04-20T02:02:01.914Z,4.55
2023-04-20T02:04:28.760Z,5.13
2023-04-20T02:06:55.755Z,4.25
2023-04-20T02:09:22.600Z,4.88
2023-04-20T02:11:49.388Z,4.30
2023-04-20T02:14:16.255Z,4.63
2023-04-20T02:16:43.117Z,5.05
2023-04-20T02:19:10.066Z,6.43
2023-04-20T02:21:36.886Z,5.28
2023-04-20T02:24:03.989Z,5.00
2023-04-20T02:26:30.931Z,4.97
2023-04-20T02:28:57.723Z,5.35
2023-04-20T02:31:24.589Z,5.13
2023-04-20T02:33:51.581Z,5.07
2023-04-20T02:36:18.434Z,5.68
2023-04-20T02:38:45.276Z,5.45
2023-04-20T02:41:12.040Z,4.90
2023-04-20T02:43:38.903Z,5.50
2023-04-20T02:46:05.800Z,4.78
2023-04-20T02:48:32.628Z,4.63
2023-04-20T02:50:59.436Z,4.50
2023-04-20T02:53:26.356Z,5.15
2023-04-20T02:55:53.158Z,4.88
2023-04-20T02:58:19.943Z,4.50
2023-04-20T03:00:47.089Z,4.65
2023-04-20T03:03:15.044Z,4.93
2023-04-20T03:05:42.448Z,5.05
2023-04-20T03:08:09.372Z,4.80
2023-04-20T03:10:36.183Z,4.22
2023-04-20T03:13:02.984Z,4.57
2023-04-20T03:15:29.769Z,4.28
2023-04-20T03:17:56.686Z,4.45
2023-04-20T03:20:24.249Z,3.65
2023-04-20T03:22:51.178Z,4.82
2023-04-20T03:25:18.047Z,4.53
2023-04-20T03:27:47.294Z,4.50
2023-04-20T03:30:14.983Z,4.35
2023-04-20T03:32:42.413Z,4.40
2023-04-20T03:35:09.588Z,3.90
2023-04-20T03:37:39.529Z,4.28
2023-04-20T03:40:07.289Z,4.30
2023-04-20T03:42:34.108Z,4.15
2023-04-20T03:45:00.926Z,4.25
2023-04-20T03:47:27.817Z,3.88
2023-04-20T03:49:54.704Z,4.50
2023-04-20T03:52:21.840Z,4.10
2023-04-20T03:54:48.640Z,3.90
2023-04-20T03:57:15.505Z,4.22
2023-04-20T03:59:42.331Z,4.22
2023-04-20T04:02:10.969Z,4.32
2023-04-20T04:04:38.012Z,4.20
2023-04-20T04:07:04.997Z,4.70
2023-04-20T04:09:31.754Z,4.00
2023-04-20T04:11:58.578Z,4.05
2023-04-20T04:14:25.379Z,4.15
2023-04-20T04:16:52.260Z,4.07
2023-04-20T04:19:19.408Z,4.07
2023-04-20T04:21:46.370Z,4.90
2023-04-20T04:24:13.224Z,4.88
2023-04-20T04:26:40.538Z,4.28
2023-04-20T04:29:07.360Z,4.68
2023-04-20T04:31:34.988Z,4.82
2023-04-20T04:34:02.189Z,4.60
2023-04-20T04:36:28.990Z,4.75
2023-04-20T04:38:55.860Z,4.50
2023-04-20T04:41:23.567Z,5.28
2023-04-20T04:43:50.963Z,5.00
2023-04-20T04:46:18.036Z,4.65
2023-04-20T04:48:45.007Z,4.95
2023-04-20T04:51:11.768Z,4.93
2023-04-20T04:53:38.562Z,5.00
2023-04-20T04:56:06.913Z,4.82
2023-04-20T04:58:33.867Z,5.00
2023-04-20T05:01:00.709Z,4.78
2023-04-20T05:03:27.574Z,5.32
2023-04-20T05:05:54.517Z,5.43
2023-04-20T05:08:24.331Z,5.60
2023-04-20T05:10:51.131Z,5.47
2023-04-20T05:13:17.982Z,5.35
2023-04-20T05:15:44.830Z,5.15
2023-04-20T05:18:11.707Z,5.45
2023-04-20T05:20:38.667Z,6.22
2023-04-20T05:23:05.450Z,6.22
2023-04-20T05:25:32.915Z,5.38
2023-04-20T05:27:59.919Z,5.28
2023-04-20T05:30:26.862Z,5.45
2023-04-20T05:32:53.712Z,5.57
2023-04-20T05:35:21.628Z,6.03
2023-04-20T05:37:48.911Z,7.55
2023-04-20T05:40:15.981Z,7.03
2023-04-20T05:42:42.925Z,6.63
2023-04-20T05:45:10.491Z,6.18
2023-04-20T05:47:37.320Z,6.60
2023-04-20T05:50:04.823Z,6.50
2023-04-20T05:52:31.795Z,6.30
2023-04-20T05:54:59.532Z,6.40
2023-04-20T05:57:26.385Z,6.15
2023-04-20T05:59:55.398Z,9.23
2023-04-20T06:02:22.480Z,6.15
2023-04-20T06:04:49.544Z,6.43
2023-04-20T06:07:16.843Z,6.57
2023-04-20T06:09:43.671Z,6.38
2023-04-20T06:12:10.473Z,6.32
2023-04-20T06:14:37.274Z,6.80
2023-04-20T06:17:04.086Z,8.65
2023-04-20T06:19:30.997Z,6.60
2023-04-20T06:22:00.282Z,7.35
2023-04-20T06:24:28.007Z,6.88
2023-04-20T06:26:55.058Z,6.50
2023-04-20T06:29:21.842Z,8.50
2023-04-20T06:31:48.755Z,11.75
2023-04-20T06:34:16.264Z,10.40
2023-04-20T06:36:43.789Z,9.50
2023-04-20T06:39:13.670Z,8.93
2023-04-20T06:41:40.645Z,8.05
2023-04-20T06:44:07.559Z,7.32
2023-04-20T06:46:34.457Z,11.60
2023-04-20T06:49:01.495Z,10.90
2023-04-20T06:51:29.239Z,7.80
2023-04-20T06:53:56.693Z,8.30
2023-04-20T06:56:23.536Z,9.50
2023-04-20T06:58:50.398Z,7.15
2023-04-20T07:01:17.307Z,7.88
2023-04-20T07:03:46.710Z,8.88
2023-04-20T07:06:13.892Z,9.35
2023-04-20T07:08:41.153Z,8.63
2023-04-20T07:11:07.984Z,8.52
2023-04-20T07:13:34.763Z,8.95
2023-04-20T07:16:01.636Z,8.35
2023-04-20T07:18:28.535Z,8.68
2023-04-20T07:20:55.348Z,8.90
2023-04-20T07:23:22.376Z,7.88
2023-04-20T07:25:49.142Z,9.15
2023-04-20T07:28:16.062Z,8.27
2023-04-20T07:30:42.860Z,8.95
2023-04-20T07:33:11.198Z,8.50
2023-04-20T07:35:38.166Z,9.52
2023-04-20T07:38:04.996Z,9.85
2023-04-20T07:40:31.859Z,9.35
2023-04-20T07:42:58.622Z,9.18
2023-04-20T07:45:25.685Z,8.40
2023-04-20T07:47:54.152Z,7.75
2023-04-20T07:50:21.741Z,7.93
2023-04-20T07:52:48.602Z,7.43
2023-04-20T07:55:15.888Z,7.43
2023-04-20T07:57:42.778Z,7.75
2023-04-20T08:00:10.273Z,8.07
2023-04-20T08:02:37.127Z,8.25
2023-04-20T08:05:04.401Z,7.63
2023-04-20T08:07:31.728Z,7.88
2023-04-20T08:09:58.646Z,7.90
2023-04-20T08:12:25.407Z,7.60
2023-04-20T08:14:52.274Z,7.95
2023-04-20T08:17:19.047Z,7.38
2023-04-20T08:19:46.158Z,7.68
2023-04-20T08:22:13.108Z,7.68
2023-04-20T08:24:39.899Z,7.40
2023-04-20T08:27:08.972Z,7.05
2023-04-20T08:29:36.695Z,8.05
2023-04-20T08:32:04.054Z,7.13
2023-04-20T08:34:30.901Z,7.65
2023-04-20T08:36:57.661Z,8.45
2023-04-20T08:39:24.566Z,7.50
2023-04-20T08:41:55.635Z,8.35
2023-04-20T08:44:23.174Z,7.78
2023-04-20T08:46:51.047Z,8.73
2023-04-20T08:49:19.620Z,8.07
2023-04-20T08:51:49.256Z,6.68
2023-04-20T08:54:16.926Z,7.80
2023-04-20T08:56:46.650Z,7.75
2023-04-20T08:59:14.663Z,7.93
2023-04-20T09:01:45.492Z,7.47
2023-04-20T09:04:22.593Z,8.95
2023-04-20T09:06:51.897Z,8.07
2023-04-20T09:09:20.521Z,8.90
2023-04-20T09:11:48.321Z,8.75
2023-04-20T09:14:16.982Z,8.35
2023-04-20T09:16:52.411Z,7.60
2023-04-20T09:19:23.879Z,7.93
2023-04-20T09:21:52.293Z,8.73
2023-04-20T09:24:20.920Z,7.45
2023-04-20T09:26:47.724Z,7.45
2023-04-20T09:29:23.391Z,7.85
2023-04-20T09:31:50.682Z,7.80
2023-04-20T09:34:18.340Z,7.80
2023-04-20T09:36:50.691Z,7.43
2023-04-20T09:39:19.708Z,7.85
2023-04-20T09:41:47.317Z,6.72
2023-04-20T09:44:16.700Z,8.00
2023-04-20T09:46:44.570Z,7.43
2023-04-20T09:49:15.166Z,6.75
2023-04-20T09:51:47.003Z,6.85
2023-04-20T09:54:15.933Z,6.60
2023-04-20T09:56:43.341Z,7.25
2023-04-20T09:59:10.287Z,6.85
2023-04-20T10:01:38.320Z,6.90
2023-04-20T10:04:11.010Z,6.22
2023-04-20T10:06:38.619Z,6.88
2023-04-20T10:09:07.871Z,6.65
2023-04-20T10:11:49.026Z,6.53
2023-04-20T10:14:26.299Z,6.93
2023-04-20T10:17:09.319Z,7.00
2023-04-20T10:19:47.003Z,6.75
2023-04-20T10:22:32.826Z,5.82
2023-04-20T10:25:01.358Z,6.13
2023-04-20T10:27:28.533Z,7.20
2023-04-20T10:29:55.394Z,6.13
2023-04-20T10:32:27.512Z,6.35
2023-04-20T10:35:06.593Z,6.50
2023-04-20T10:37:34.142Z,6.88
2023-04-20T10:40:01.132Z,6.10
2023-04-20T10:42:29.796Z,5.82
2023-04-20T10:44:57.086Z,6.40
2023-04-20T10:47:29.682Z,6.40
2023-04-20T10:50:10.068Z,6.75
2023-04-20T10:52:41.704Z,6.28
2023-04-20T10:55:28.821Z,6.53
2023-04-20T10:57:55.760Z,5.97
2023-04-20T11:00:25.941Z,6.15
2023-04-20T11:02:54.613Z,7.07
2023-04-20T11:05:23.330Z,6.22
2023-04-20T11:07:58.841Z,5.80
2023-04-20T11:10:40.879Z,5.95
2023-04-20T11:13:18.730Z,5.80
2023-04-20T11:15:45.558Z,6.30
2023-04-20T11:18:12.591Z,6.75
2023-04-20T11:20:53.643Z,6.28
2023-04-20T11:23:21.898Z,5.93
2023-04-20T11:25:56.539Z,6.32
2023-04-20T11:28:23.960Z,5.78
2023-04-20T11:30:51.155Z,6.25
2023-04-20T11:33:29.033Z,6.22
2023-04-20T11:35:59.262Z,6.53
2023-04-20T11:38:32.544Z,6.22
2023-04-20T11:41:04.499Z,5.93
2023-04-20T11:43:32.383Z,6.60
2023-04-20T11:46:02.829Z,6.88
2023-04-20T11:48:33.061Z,5.93
2023-04-20T11:50:59.863Z,5.45
2023-04-20T11:53:26.894Z,5.38
2023-04-20T11:55:53.811Z,5.38
2023-04-20T11:58:20.665Z,5.78
2023-04-20T12:00:47.436Z,6.03
2023-04-20T12:03:14.716Z,5.65
2023-04-20T12:05:43.284Z,5.05
2023-04-20T12:08:10.220Z,4.70
2023-04-20T12:10:37.090Z,5.82
2023-04-20T12:13:03.950Z,5.55
2023-04-20T12:15:30.732Z,5.13
2023-04-20T12:17:57.990Z,4.95
2023-04-20T12:20:24.811Z,4.90
2023-04-20T12:22:51.560Z,5.65
2023-04-20T12:25:18.427Z,5.63
2023-04-20T12:27:45.263Z,5.18
2023-04-20T12:30:12.769Z,5.80
2023-04-20T12:32:39.720Z,5.78
2023-04-20T12:35:08.535Z,6.15
2023-04-20T12:37:35.607Z,6.55
2023-04-20T12:40:02.414Z,7.00
2023-04-20T12:42:29.460Z,6.82
2023-04-20T12:44:56.290Z,7.43
2023-04-20T12:47:23.124Z,7.78
2023-04-20T12:49:49.954Z,7.65
2023-04-20T12:52:16.773Z,7.75
2023-04-20T12:54:44.113Z,7.07
2023-04-20T12:57:11.290Z,7.22
2023-04-20T12:59:38.080Z,6.93
2023-04-20T13:02:04.986Z,6.55
2023-04-20T13:04:32.046Z,7.15
2023-04-20T13:06:58.980Z,6.95
2023-04-20T13:09:27.187Z,7.45
2023-04-20T13:11:54.216Z,7.20
2023-04-20T13:14:21.539Z,6.88
2023-04-20T13:16:48.781Z,7.82
2023-04-20T13:19:15.769Z,7.55
2023-04-20T13:21:42.682Z,7.10
2023-04-20T13:24:09.569Z,7.60
2023-04-20T13:26:36.847Z,8.10
2023-04-20T13:29:03.730Z,7.63
2023-04-20T13:31:31.312Z,7.50
2023-04-20T13:33:58.253Z,8.00
2023-04-20T13:36:25.255Z,7.53
2023-04-20T13:38:53.494Z,7.63
2023-04-20T13:41:20.397Z,7.53
2023-04-20T13:43:47.164Z,7.80
2023-04-20T13:46:15.368Z,8.38
2023-04-20T13:48:42.448Z,7.85
2023-04-20T13:51:09.331Z,8.60
2023-04-20T13:53:36.383Z,7.65
2023-04-20T13:56:04.012Z,7.90
2023-04-20T13:58:30.790Z,8.25
2023-04-20T14:00:57.681Z,7.78
2023-04-20T14:03:26.344Z,7.82
2023-04-20T14:05:53.539Z,7.45
2023-04-20T14:08:20.745Z,8.30
2023-04-20T14:10:47.554Z,7.95
2023-04-20T14:13:14.335Z,8.10
2023-04-20T14:15:41.800Z,8.50
2023-04-20T14:18:08.685Z,9.00
2023-04-20T14:20:35.580Z,8.38
2023-04-20T14:23:02.414Z,9.40
2023-04-20T14:25:29.269Z,9.43
2023-04-20T14:27:56.147Z,8.90
2023-04-20T14:30:23.215Z,9.13
2023-04-20T14:32:57.829Z,9.02
2023-04-20T14:35:26.296Z,9.23
2023-04-20T14:37:53.288Z,7.78
2023-04-20T14:40:20.774Z,7.82
2023-04-20T14:42:47.859Z,7.40
2023-04-20T14:45:14.818Z,7.63
2023-04-20T14:47:41.627Z,6.57
2023-04-20T14:50:09.450Z,7.22
2023-04-20T14:52:36.360Z,7.07
2023-04-20T14:55:04.192Z,7.63
2023-04-20T14:57:31.605Z,6.82
2023-04-20T14:59:58.423Z,7.43
2023-04-20T15:02:25.576Z,7.35
2023-04-20T15:04:52.825Z,7.10
2023-04-20T15:07:19.764Z,7.78
2023-04-20T15:09:46.703Z,8.70
2023-04-20T15:12:13.493Z,7.35
2023-04-20T15:14:40.325Z,7.18
2023-04-20T15:17:07.125Z,8.02
2023-04-20T15:19:33.939Z,7.68
2023-04-20T15:22:01.212Z,7.72
2023-04-20T15:24:28.023Z,9.30
2023-04-20T15:26:54.888Z,7.85
2023-04-20T15:29:21.960Z,7.15
2023-04-20T15:31:48.828Z,6.95
2023-04-20T15:34:17.295Z,6.88
2023-04-20T15:36:44.874Z,6.50
2023-04-20T15:39:12.467Z,6.60
2023-04-20T15:41:39.321Z,7.50
2023-04-20T15:44:06.281Z,6.88
2023-04-20T15:46:33.307Z,7.55
2023-04-20T15:49:00.244Z,6.22
2023-04-20T15:51:28.064Z,6.55
2023-04-20T15:53:54.919Z,6.47
2023-04-20T15:56:24.776Z,6.30
2023-04-20T15:58:52.205Z,5.95
2023-04-20T16:01:19.891Z,7.63
2023-04-20T16:03:48.308Z,6.18
2023-04-20T16:06:15.841Z,7.75
2023-04-20T16:08:42.659Z,6.70
2023-04-20T16:11:09.485Z,6.85
2023-04-20T16:13:36.871Z,7.40
2023-04-20T16:16:03.892Z,6.97
2023-04-20T16:18:32.218Z,7.50
2023-04-20T16:20:59.274Z,7.90
2023-04-20T16:23:26.192Z,7.53
2023-04-20T16:25:53.031Z,7.30
2023-04-20T16:28:19.854Z,6.93
2023-04-20T16:30:46.620Z,7.65
2023-04-20T16:33:14.038Z,7.70
2023-04-20T16:35:41.179Z,7.75
2023-04-20T16:38:10.401Z,8.00
2023-04-20T16:40:37.571Z,8.43
2023-04-20T16:43:04.569Z,7.93
2023-04-20T16:45:32.824Z,8.63
2023-04-20T16:47:59.777Z,8.82
2023-04-20T16:50:26.694Z,8.38
2023-04-20T16:52:53.701Z,8.60
2023-04-20T16:55:20.746Z,9.10
2023-04-20T16:57:47.539Z,8.57
2023-04-20T17:00:14.943Z,8.93
2023-04-20T17:02:41.937Z,8.38
2023-04-20T17:05:09.200Z,8.45
2023-04-20T17:07:37.048Z,8.27
2023-04-20T17:10:04.785Z,8.65
2023-04-20T17:12:31.609Z,8.23
2023-04-20T17:14:58.390Z,8.90
2023-04-20T17:17:26.184Z,9.13
2023-04-20T17:19:54.098Z,8.93
2023-04-20T17:22:21.411Z,9.00
2023-04-20T17:24:48.189Z,9.13
2023-04-20T17:27:16.113Z,9.38
2023-04-20T17:29:45.326Z,8.82
2023-04-20T17:32:12.402Z,9.45
2023-04-20T17:34:40.106Z,9.70
2023-04-20T17:37:07.217Z,10.20
2023-04-20T17:39:33.988Z,10.73
2023-04-20T17:42:01.468Z,10.25
2023-04-20T17:44:28.318Z,10.05
2023-04-20T17:46:55.249Z,9.93
2023-04-20T17:49:22.016Z,9.85
2023-04-20T17:51:48.834Z,10.52
2023-04-20T17:54:16.024Z,10.77
2023-04-20T17:56:43.109Z,11.20
2023-04-20T17:59:11.823Z,10.70
2023-04-20T18:01:38.999Z,11.73
2023-04-20T18:04:06.326Z,10.85
2023-04-20T18:06:33.875Z,11.38
2023-04-20T18:09:01.300Z,10.55
2023-04-20T18:11:28.266Z,10.77
2023-04-20T18:13:55.181Z,11.57
2023-04-20T18:16:22.058Z,12.57
2023-04-20T18:18:50.467Z,11.75
2023-04-20T18:21:17.475Z,12.40
2023-04-20T18:23:44.253Z,12.80
2023-04-20T18:26:17.197Z,12.57
2023-04-20T18:28:47.703Z,12.15
2023-04-20T18:31:14.575Z,12.10
2023-04-20T18:33:41.410Z,12.05
2023-04-20T18:36:08.262Z,12.48
2023-04-20T18:38:35.352Z,12.38
2023-04-20T18:41:02.843Z,13.07
2023-04-20T18:43:29.678Z,13.55
2023-04-20T18:45:56.439Z,12.02
2023-04-20T18:48:23.230Z,11.75
2023-04-20T18:50:49.997Z,12.02
2023-04-20T18:53:16.938Z,15.30
2023-04-20T18:55:43.868Z,14.65
2023-04-20T18:58:10.689Z,13.70
2023-04-20T19:00:38.090Z,14.25
2023-04-20T19:03:05.944Z,13.40
2023-04-20T19:05:33.125Z,15.55
2023-04-20T19:07:59.908Z,19.98
2023-04-20T19:10:26.774Z,16.35
2023-04-20T19:12:53.657Z,15.43
2023-04-20T19:15:25.623Z,15.20
2023-04-20T19:17:56.368Z,15.35
2023-04-20T19:20:24.134Z,16.05
2023-04-20T19:22:50.975Z,14.75
2023-04-20T19:25:18.111Z,14.85
2023-04-20T19:27:44.978Z,13.75
2023-04-20T19:30:12.054Z,14.90
2023-04-20T19:32:38.918Z,15.73
2023-04-20T19:35:06.161Z,16.52
2023-04-20T19:37:33.214Z,18.48
2023-04-20T19:40:00.000Z,14.57
2023-04-20T19:42:26.808Z,14.23
2023-04-20T19:44:53.644Z,13.82
2023-04-20T19:47:20.865Z,15.13
2023-04-20T19:49:48.206Z,15.35
2023-04-20T19:52:15.269Z,16.45
2023-04-20T19:54:42.421Z,17.00
2023-04-20T19:57:09.630Z,17.98
2023-04-20T19:59:38.988Z,16.35
2023-04-20T20:02:06.193Z,16.77
2023-04-20T20:04:33.747Z,18.85
2023-04-20T20:07:00.627Z,19.70
2023-04-20T20:09:27.464Z,18.70
2023-04-20T20:11:54.360Z,18.92
2023-04-20T20:14:21.382Z,15.63
2023-04-20T20:16:48.226Z,16.13
2023-04-20T20:19:16.013Z,15.77
2023-04-20T20:21:44.190Z,14.88
2023-04-20T20:24:11.064Z,15.70
2023-04-20T20:26:37.892Z,16.10
2023-04-20T20:29:04.685Z,16.77
2023-04-20T20:31:31.528Z,17.20
2023-04-20T20:33:58.378Z,15.23
2023-04-20T20:36:25.748Z,15.30
2023-04-20T20:38:53.436Z,15.30
2023-04-20T20:41:20.916Z,14.73
2023-04-20T20:43:49.719Z,14.15
2023-04-20T20:46:17.140Z,14.80
2023-04-20T20:48:44.022Z,15.43
2023-04-20T20:51:11.716Z,16.13
2023-04-20T20:53:38.555Z,15.25
2023-04-20T20:56:05.513Z,17.40
2023-04-20T20:58:32.379Z,17.75
2023-04-20T21:00:59.219Z,17.63
2023-04-20T21:03:26.189Z,18.13
2023-04-20T21:05:53.253Z,19.35
2023-04-20T21:08:20.104Z,17.95
2023-04-20T21:10:47.117Z,18.25
2023-04-20T21:13:13.970Z,18.85
2023-04-20T21:15:40.955Z,18.80
2023-04-20T21:18:07.807Z,18.50
2023-04-20T21:20:34.842Z,18.10
2023-04-20T21:23:01.817Z,17.92
2023-04-20T21:25:28.697Z,17.15
2023-04-20T21:27:55.564Z,16.35
2023-04-20T21:30:22.389Z,16.25
2023-04-20T21:32:49.209Z,16.77
2023-04-20T21:35:16.063Z,16.90
2023-04-20T21:37:43.715Z,17.58
2023-04-20T21:40:11.837Z,16.33
2023-04-20T21:42:38.733Z,17.30
2023-04-20T21:45:05.969Z,15.43
2023-04-20T21:47:32.795Z,15.75
2023-04-20T21:50:00.035Z,15.43
2023-04-20T21:52:26.992Z,15.40
2023-04-20T21:54:53.858Z,15.43
2023-04-20T21:57:20.632Z,14.52
2023-04-20T21:59:47.423Z,14.68
2023-04-20T22:02:14.305Z,15.75
2023-04-20T22:04:41.315Z,14.82
2023-04-20T22:07:09.804Z,16.23
2023-04-20T22:09:36.627Z,14.20
2023-04-20T22:12:04.304Z,14.57
2023-04-20T22:14:31.274Z,13.48
2023-04-20T22:16:58.073Z,14.00
2023-04-20T22:19:24.952Z,13.85
2023-04-20T22:21:51.719Z,13.73
2023-04-20T22:24:18.470Z,13.85
2023-04-20T22:26:45.335Z,13.65
2023-04-20T22:29:12.119Z,13.82
2023-04-20T22:31:38.982Z,13.40
2023-04-20T22:34:05.774Z,13.75
2023-04-20T22:36:32.627Z,12.15
2023-04-20T22:38:59.443Z,12.57
2023-04-20T22:41:26.260Z,13.20
2023-04-20T22:43:53.023Z,12.40
2023-04-20T22:46:19.833Z,12.60
2023-04-20T22:48:48.497Z,12.35
2023-04-20T22:51:17.261Z,13.20
2023-04-20T22:53:44.651Z,11.05
2023-04-20T22:56:11.500Z,13.02
2023-04-20T22:58:38.307Z,11.88
2023-04-20T23:01:05.360Z,11.82
2023-04-20T23:03:32.812Z,11.65
2023-04-20T23:05:59.784Z,11.60
2023-04-20T23:08:28.079Z,11.57
2023-04-20T23:10:54.910Z,10.65
2023-04-20T23:13:24.590Z,11.90
2023-04-20T23:15:51.571Z,11.27
2023-04-20T23:18:18.592Z,11.15
2023-04-20T23:20:45.385Z,10.38
2023-04-20T23:23:12.151Z,10.30
2023-04-20T23:25:39.013Z,10.40
2023-04-20T23:28:06.061Z,10.10
2023-04-20T23:30:32.939Z,10.10
2023-04-20T23:32:59.919Z,11.80
2023-04-20T23:35:26.809Z,10.32
2023-04-20T23:37:55.233Z,10.02
2023-04-20T23:40:22.133Z,9.70
2023-04-20T23:42:49.110Z,9.50
2023-04-20T23:45:16.118Z,10.30
2023-04-20T23:47:43.010Z,9.57
2023-04-20T23:50:09.961Z,9.48
2023-04-20T23:52:37.014Z,10.20
2023-04-20T23:55:04.789Z,9.60
2023-04-20T23:57:31.587Z,9.73
2023-04-20T23:59:58.468Z,8.80
